createdAt,value
2018-06-19T00:01:33.748Z,20.82
2018-06-19T00:04:02.702Z,20.82
2018-06-19T00:06:31.702Z,20.86
2018-06-19T00:09:00.634Z,20.80
2018-06-19T00:11:29.640Z,20.90
2018-06-19T00:13:58.583Z,20.80
2018-06-19T00:16:27.612Z,20.82
2018-06-19T00:18:59.113Z,20.77
2018-06-19T00:21:34.919Z,20.86
2018-06-19T00:24:03.925Z,20.85
2018-06-19T00:26:32.945Z,20.81
2018-06-19T00:29:02.202Z,20.85
2018-06-19T00:31:31.264Z,20.83
2018-06-19T00:34:00.194Z,20.90
2018-06-19T00:36:29.249Z,20.81
2018-06-19T00:38:58.223Z,20.65
2018-06-19T00:41:27.182Z,20.83
2018-06-19T00:43:56.213Z,20.88
2018-06-19T00:46:27.331Z,20.82
2018-06-19T00:48:56.352Z,20.80
2018-06-19T00:51:25.310Z,20.65
2018-06-19T00:53:54.477Z,20.77
2018-06-19T00:56:34.528Z,20.86
2018-06-19T00:59:03.734Z,20.85
2018-06-19T01:01:32.817Z,20.85
2018-06-19T01:04:01.811Z,20.73
2018-06-19T01:06:30.771Z,20.63
2018-06-19T01:08:59.774Z,20.67
2018-06-19T01:11:28.770Z,20.63
2018-06-19T01:13:57.770Z,20.69
2018-06-19T01:16:27.621Z,20.64
2018-06-19T01:18:56.686Z,20.71
2018-06-19T01:21:25.631Z,20.66
2018-06-19T01:23:54.637Z,20.52
2018-06-19T01:26:23.614Z,20.42
2018-06-19T01:28:52.769Z,20.54
2018-06-19T01:31:21.842Z,20.45
2018-06-19T01:33:51.142Z,20.43
2018-06-19T01:36:20.404Z,20.43
2018-06-19T01:38:49.542Z,20.41
2018-06-19T01:41:18.795Z,20.37
2018-06-19T01:43:47.831Z,20.26
2018-06-19T01:46:16.768Z,20.30
2018-06-19T01:48:45.902Z,20.30
2018-06-19T01:51:14.862Z,20.28
2018-06-19T01:53:43.903Z,20.26
2018-06-19T01:56:12.891Z,20.20
2018-06-19T01:58:41.916Z,20.11
2018-06-19T02:01:10.990Z,20.20
2018-06-19T02:03:40.022Z,20.05
2018-06-19T02:06:08.974Z,19.95
2018-06-19T02:08:37.983Z,20.00
2018-06-19T02:11:06.964Z,19.87
2018-06-19T02:13:36.003Z,19.96
2018-06-19T02:16:04.972Z,19.91
2018-06-19T02:18:34.014Z,20.01
2018-06-19T02:21:03.013Z,19.82
2018-06-19T02:23:32.016Z,19.86
2018-06-19T02:26:00.922Z,19.73
2018-06-19T02:28:29.910Z,19.59
2018-06-19T02:30:58.837Z,18.56
2018-06-19T02:33:27.824Z,18.63
2018-06-19T02:35:56.754Z,19.23
2018-06-19T02:38:25.782Z,19.52
2018-06-19T02:40:54.731Z,19.69
2018-06-19T02:43:23.775Z,19.65
2018-06-19T02:45:52.756Z,19.60
2018-06-19T02:48:21.722Z,19.64
2018-06-19T02:50:50.742Z,19.74
2018-06-19T02:53:19.683Z,19.64
2018-06-19T02:55:48.680Z,19.66
2018-06-19T02:58:17.622Z,19.54
2018-06-19T03:00:46.729Z,19.60
2018-06-19T03:03:15.662Z,19.13
2018-06-19T03:05:44.629Z,19.44
2018-06-19T03:08:13.570Z,19.58
2018-06-19T03:10:42.555Z,19.53
2018-06-19T03:13:11.490Z,19.18
2018-06-19T03:15:40.493Z,19.50
2018-06-19T03:18:09.480Z,19.59
2018-06-19T03:20:38.493Z,19.63
2018-06-19T03:23:07.539Z,19.60
2018-06-19T03:25:36.508Z,18.91
2018-06-19T03:28:05.452Z,18.86
2018-06-19T03:30:34.449Z,19.03
2018-06-19T03:33:03.403Z,19.15
2018-06-19T03:35:32.382Z,19.25
2018-06-19T03:38:01.335Z,19.37
2018-06-19T03:40:30.352Z,19.51
2018-06-19T03:42:59.281Z,19.41
2018-06-19T03:45:28.262Z,19.44
2018-06-19T03:47:57.222Z,19.62
2018-06-19T03:50:26.230Z,19.50
2018-06-19T03:52:55.193Z,19.69
2018-06-19T03:55:24.212Z,19.69
2018-06-19T03:57:53.187Z,19.70
2018-06-19T04:00:22.203Z,19.64
2018-06-19T04:02:51.173Z,19.71
2018-06-19T04:05:20.143Z,19.88
2018-06-19T04:07:49.095Z,20.06
2018-06-19T04:10:18.095Z,20.06
2018-06-19T04:12:47.072Z,20.14
2018-06-19T04:15:16.106Z,20.23
2018-06-19T04:17:45.085Z,20.32
2018-06-19T04:20:14.222Z,20.22
2018-06-19T04:22:43.207Z,20.46
2018-06-19T04:25:12.214Z,20.82
2018-06-19T04:27:41.178Z,21.01
2018-06-19T04:30:10.184Z,21.76
2018-06-19T04:32:39.184Z,22.32
2018-06-19T04:35:08.174Z,22.38
2018-06-19T04:37:37.178Z,21.92
2018-06-19T04:40:06.192Z,21.18
2018-06-19T04:42:35.185Z,20.34
2018-06-19T04:45:04.188Z,20.05
2018-06-19T04:47:33.189Z,19.51
2018-06-19T04:50:02.138Z,20.42
2018-06-19T04:52:31.131Z,20.85
2018-06-19T04:55:00.070Z,21.32
2018-06-19T04:57:29.116Z,21.81
2018-06-19T04:59:58.154Z,21.93
2018-06-19T05:02:27.157Z,22.13
2018-06-19T05:04:56.153Z,22.31
2018-06-19T05:07:25.166Z,22.66
2018-06-19T05:09:54.152Z,22.49
2018-06-19T05:12:23.193Z,22.76
2018-06-19T05:14:52.265Z,23.06
2018-06-19T05:17:21.273Z,23.22
2018-06-19T05:19:50.377Z,25.54
2018-06-19T05:22:19.435Z,27.01
2018-06-19T05:24:48.423Z,28.58
2018-06-19T05:27:17.483Z,28.68
2018-06-19T05:29:46.502Z,28.29
2018-06-19T05:32:15.501Z,29.41
2018-06-19T05:34:44.463Z,28.30
2018-06-19T05:37:13.601Z,29.34
2018-06-19T05:39:43.362Z,28.04
2018-06-19T05:42:13.109Z,28.30
2018-06-19T05:44:42.886Z,28.32
2018-06-19T05:47:12.694Z,27.49
2018-06-19T05:49:42.400Z,28.00
2018-06-19T05:52:12.216Z,27.92
2018-06-19T05:54:42.061Z,27.70
2018-06-19T05:57:11.808Z,27.77
2018-06-19T05:59:41.683Z,28.56
2018-06-19T06:02:11.412Z,29.83
2018-06-19T06:04:41.257Z,30.16
2018-06-19T06:07:11.004Z,30.62
2018-06-19T06:09:40.810Z,30.39
2018-06-19T06:12:10.598Z,30.59
2018-06-19T06:14:40.368Z,31.81
2018-06-19T06:17:09.947Z,28.88
2018-06-19T06:19:39.786Z,29.91
2018-06-19T06:22:09.567Z,26.06
2018-06-19T06:24:39.368Z,29.05
2018-06-19T06:27:09.534Z,32.22
2018-06-19T06:29:39.360Z,31.94
2018-06-19T06:32:09.236Z,31.18
2018-06-19T06:34:39.033Z,33.37
2018-06-19T06:37:08.811Z,32.90
2018-06-19T06:39:38.686Z,33.97
2018-06-19T06:42:08.430Z,31.86
2018-06-19T06:44:38.243Z,33.33
2018-06-19T06:47:08.481Z,30.07
2018-06-19T06:49:38.377Z,30.23
2018-06-19T06:52:08.078Z,28.55
2018-06-19T06:54:38.150Z,23.87
2018-06-19T06:57:08.184Z,23.59
2018-06-19T06:59:38.209Z,24.19
2018-06-19T07:02:08.252Z,25.27
2018-06-19T07:04:38.101Z,24.88
2018-06-19T07:07:07.842Z,24.94
2018-06-19T07:09:37.629Z,24.22
2018-06-19T07:12:07.468Z,24.75
2018-06-19T07:14:37.282Z,24.97
2018-06-19T07:17:07.276Z,25.63
2018-06-19T07:19:37.104Z,25.67
2018-06-19T07:22:06.862Z,25.23
2018-06-19T07:24:36.771Z,25.70
2018-06-19T07:27:06.549Z,26.05
2018-06-19T07:29:36.315Z,26.01
2018-06-19T07:32:06.123Z,25.02
2018-06-19T07:34:35.868Z,25.49
2018-06-19T07:37:05.670Z,25.06
2018-06-19T07:39:35.553Z,24.81
2018-06-19T07:42:04.601Z,24.74
2018-06-19T07:44:33.680Z,25.17
2018-06-19T07:47:02.667Z,24.84
2018-06-19T07:49:32.451Z,24.76
2018-06-19T07:52:02.336Z,25.08
2018-06-19T07:54:32.051Z,25.31
2018-06-19T07:57:01.834Z,24.94
2018-06-19T07:59:31.664Z,24.75
2018-06-19T08:02:01.507Z,24.81
2018-06-19T08:04:31.219Z,24.80
2018-06-19T08:07:01.149Z,24.87
2018-06-19T08:09:30.084Z,24.67
2018-06-19T08:11:59.047Z,24.59
2018-06-19T08:14:28.006Z,24.71
2018-06-19T08:16:56.988Z,25.12
2018-06-19T08:19:25.939Z,25.01
2018-06-19T08:21:55.855Z,25.07
2018-06-19T08:24:25.627Z,25.23
2018-06-19T08:26:55.446Z,25.59
2018-06-19T08:29:25.367Z,25.96
2018-06-19T08:31:55.198Z,25.52
2018-06-19T08:34:24.854Z,25.69
2018-06-19T08:36:54.958Z,26.33
2018-06-19T08:39:24.801Z,26.49
2018-06-19T08:41:54.687Z,26.25
2018-06-19T08:44:24.463Z,26.33
2018-06-19T08:46:54.231Z,26.60
2018-06-19T08:49:23.911Z,26.59
2018-06-19T08:51:53.822Z,26.31
2018-06-19T08:54:23.637Z,25.68
2018-06-19T08:56:53.594Z,26.36
2018-06-19T08:59:23.339Z,25.80
2018-06-19T09:01:53.198Z,25.89
2018-06-19T09:04:23.394Z,25.89
2018-06-19T09:06:53.203Z,25.85
2018-06-19T09:09:23.321Z,26.21
2018-06-19T09:11:53.064Z,25.63
2018-06-19T09:14:22.762Z,26.38
2018-06-19T09:16:52.518Z,26.58
2018-06-19T09:19:22.339Z,26.37
2018-06-19T09:21:52.191Z,26.23
2018-06-19T09:24:22.061Z,24.73
2018-06-19T09:26:51.858Z,27.51
2018-06-19T09:29:21.888Z,27.06
2018-06-19T09:31:50.899Z,27.41
2018-06-19T09:34:19.916Z,27.54
2018-06-19T09:36:48.864Z,29.27
2018-06-19T09:39:18.563Z,26.47
2018-06-19T09:41:47.536Z,26.22
2018-06-19T09:44:16.538Z,26.29
2018-06-19T09:46:45.491Z,25.54
2018-06-19T09:49:14.497Z,26.77
2018-06-19T09:51:43.607Z,26.56
2018-06-19T09:54:12.622Z,26.07
2018-06-19T09:56:41.596Z,25.63
2018-06-19T09:59:10.697Z,24.99
2018-06-19T10:01:39.646Z,24.54
2018-06-19T10:04:08.648Z,25.07
2018-06-19T10:06:38.526Z,25.05
2018-06-19T10:09:10.231Z,25.43
2018-06-19T10:11:40.106Z,26.05
2018-06-19T10:14:09.972Z,25.89
2018-06-19T10:16:39.798Z,26.36
2018-06-19T10:19:09.571Z,25.33
2018-06-19T10:21:39.364Z,25.70
2018-06-19T10:24:09.009Z,25.94
2018-06-19T10:26:38.809Z,25.59
2018-06-19T10:29:08.900Z,25.93
2018-06-19T10:31:38.743Z,25.91
2018-06-19T10:34:08.501Z,26.21
2018-06-19T10:36:38.223Z,25.84
2018-06-19T10:39:10.837Z,27.01
2018-06-19T10:41:40.670Z,27.76
2018-06-19T10:44:10.547Z,27.89
2018-06-19T10:46:40.303Z,28.42
2018-06-19T10:49:10.017Z,28.88
2018-06-19T10:51:39.814Z,28.77
2018-06-19T10:54:09.477Z,28.49
2018-06-19T10:56:39.541Z,28.55
2018-06-19T10:59:09.418Z,28.89
2018-06-19T11:01:39.160Z,29.10
2018-06-19T11:04:08.891Z,29.09
2018-06-19T11:06:38.686Z,28.86
2018-06-19T11:09:10.695Z,27.93
2018-06-19T11:11:39.906Z,27.85
2018-06-19T11:14:08.984Z,28.14
2018-06-19T11:16:37.934Z,28.28
2018-06-19T11:19:06.902Z,28.71
2018-06-19T11:21:35.873Z,27.66
2018-06-19T11:24:05.006Z,27.42
2018-06-19T11:26:33.808Z,27.31
2018-06-19T11:29:02.814Z,27.24
2018-06-19T11:31:31.758Z,27.50
2018-06-19T11:34:00.722Z,27.28
2018-06-19T11:36:29.714Z,27.85
2018-06-19T11:38:58.688Z,26.83
2018-06-19T11:41:27.766Z,27.26
2018-06-19T11:43:57.015Z,27.08
2018-06-19T11:46:26.178Z,27.83
2018-06-19T11:48:55.134Z,27.79
2018-06-19T11:51:25.020Z,27.42
2018-06-19T11:53:54.130Z,27.85
2018-06-19T11:56:23.901Z,27.83
2018-06-19T11:58:53.916Z,27.35
2018-06-19T12:01:23.690Z,27.17
2018-06-19T12:03:53.480Z,27.05
2018-06-19T12:06:23.302Z,27.67
2018-06-19T12:08:53.091Z,26.65
2018-06-19T12:11:22.806Z,27.61
2018-06-19T12:13:52.639Z,27.31
2018-06-19T12:16:22.383Z,25.69
2018-06-19T12:18:52.230Z,25.76
2018-06-19T12:21:21.962Z,26.05
2018-06-19T12:23:51.983Z,26.35
2018-06-19T12:26:21.786Z,26.75
2018-06-19T12:28:51.685Z,27.09
2018-06-19T12:31:20.624Z,26.78
2018-06-19T12:33:55.893Z,27.01
2018-06-19T12:36:24.979Z,26.82
2018-06-19T12:38:54.006Z,26.73
2018-06-19T12:41:23.299Z,27.33
2018-06-19T12:43:52.290Z,27.53
2018-06-19T12:46:21.251Z,27.87
2018-06-19T12:48:50.253Z,27.84
2018-06-19T12:52:00.752Z,27.81
2018-06-19T12:56:38.008Z,27.74
2018-06-19T12:59:07.018Z,28.10
2018-06-19T13:01:36.357Z,28.23
2018-06-19T13:04:16.258Z,28.67
2018-06-19T13:06:45.376Z,29.15
2018-06-19T13:09:14.482Z,29.74
2018-06-19T13:11:44.134Z,29.64
2018-06-19T13:14:24.100Z,29.80
2018-06-19T13:17:03.901Z,28.44
2018-06-19T13:19:43.766Z,27.96
2018-06-19T13:22:13.194Z,29.34
2018-06-19T13:24:43.019Z,29.62
2018-06-19T13:27:12.026Z,29.75
2018-06-19T13:29:55.150Z,29.80
2018-06-19T13:32:24.680Z,28.26
2018-06-19T13:34:54.172Z,29.16
2018-06-19T13:37:23.130Z,29.45
2018-06-19T13:41:01.418Z,29.23
2018-06-19T13:43:41.791Z,29.00
2018-06-19T13:46:11.407Z,29.61
2018-06-19T13:48:41.150Z,29.54
2018-06-19T13:51:10.596Z,29.49
2018-06-19T13:53:39.681Z,29.89
2018-06-19T13:57:20.937Z,30.42
2018-06-19T13:59:50.766Z,30.02
2018-06-19T14:02:20.109Z,30.15
2018-06-19T14:04:49.254Z,29.95
2018-06-19T14:07:18.366Z,30.26
2018-06-19T14:09:58.322Z,29.90
2018-06-19T14:12:58.582Z,30.31
2018-06-19T14:15:28.663Z,30.26
2018-06-19T14:17:57.981Z,30.78
2018-06-19T14:20:27.047Z,30.59
2018-06-19T14:22:56.038Z,30.32
2018-06-19T14:25:25.242Z,30.67
2018-06-19T14:27:54.254Z,30.70
2018-06-19T14:30:23.193Z,30.90
2018-06-19T14:32:52.174Z,30.39
2018-06-19T14:35:21.168Z,29.73
2018-06-19T14:37:50.164Z,28.51
2018-06-19T14:40:19.144Z,28.67
2018-06-19T14:42:48.105Z,29.06
2018-06-19T14:45:17.058Z,28.09
2018-06-19T14:47:46.075Z,28.27
2018-06-19T14:50:15.374Z,27.98
2018-06-19T14:52:44.343Z,28.92
2018-06-19T14:55:13.282Z,28.51
2018-06-19T14:57:42.254Z,28.02
2018-06-19T15:00:11.914Z,28.10
2018-06-19T15:02:41.190Z,28.20
2018-06-19T15:05:10.134Z,27.52
2018-06-19T15:07:58.381Z,27.17
2018-06-19T15:10:27.527Z,26.95
2018-06-19T15:12:56.508Z,27.14
2018-06-19T15:15:25.439Z,28.59
2018-06-19T15:17:54.412Z,28.15
2018-06-19T15:20:23.331Z,28.46
2018-06-19T15:22:52.316Z,27.47
2018-06-19T15:25:21.344Z,28.18
2018-06-19T15:27:50.253Z,27.81
2018-06-19T15:30:19.220Z,28.12
2018-06-19T15:32:48.166Z,28.49
2018-06-19T15:35:17.161Z,28.36
2018-06-19T15:37:46.236Z,28.37
2018-06-19T15:40:15.205Z,27.39
2018-06-19T15:42:44.171Z,27.65
2018-06-19T15:45:13.165Z,27.80
2018-06-19T15:47:42.107Z,27.68
2018-06-19T15:50:11.271Z,27.38
2018-06-19T15:52:40.202Z,27.42
2018-06-19T15:55:09.314Z,27.62
2018-06-19T15:57:38.307Z,26.94
2018-06-19T16:00:07.313Z,27.27
2018-06-19T16:02:36.237Z,27.01
2018-06-19T16:05:05.246Z,27.31
2018-06-19T16:07:34.315Z,27.71
2018-06-19T16:10:04.122Z,27.04
2018-06-19T16:12:33.338Z,27.31
2018-06-19T16:15:02.344Z,27.08
2018-06-19T16:17:31.306Z,27.70
2018-06-19T16:20:00.374Z,28.29
2018-06-19T16:22:29.326Z,28.78
2018-06-19T16:24:58.421Z,28.91
2018-06-19T16:27:27.801Z,28.94
2018-06-19T16:29:56.905Z,29.09
2018-06-19T16:32:25.839Z,29.02
2018-06-19T16:34:54.845Z,29.06
2018-06-19T16:37:23.790Z,29.10
2018-06-19T16:39:53.510Z,28.96
2018-06-19T16:42:22.774Z,28.90
2018-06-19T16:44:51.785Z,28.78
2018-06-19T16:47:20.734Z,28.83
2018-06-19T16:49:49.695Z,28.89
2018-06-19T16:52:18.901Z,29.41
2018-06-19T16:54:47.891Z,29.41
2018-06-19T16:57:16.898Z,29.33
2018-06-19T16:59:45.881Z,29.20
2018-06-19T17:02:14.864Z,29.15
2018-06-19T17:04:43.842Z,29.56
2018-06-19T17:07:12.865Z,29.25
2018-06-19T17:09:41.803Z,28.91
2018-06-19T17:12:10.788Z,29.29
2018-06-19T17:14:39.885Z,29.15
2018-06-19T17:17:08.978Z,28.67
2018-06-19T17:19:38.084Z,29.28
2018-06-19T17:22:07.071Z,29.19
2018-06-19T17:24:36.016Z,28.99
2018-06-19T17:27:05.005Z,29.00
2018-06-19T17:29:33.939Z,29.17
2018-06-19T17:32:03.015Z,29.10
2018-06-19T17:34:31.985Z,29.14
2018-06-19T17:37:01.096Z,28.80
2018-06-19T17:39:30.191Z,28.84
2018-06-19T17:41:59.255Z,28.69
2018-06-19T17:44:28.182Z,28.51
2018-06-19T17:46:57.276Z,28.55
2018-06-19T17:49:26.199Z,28.59
2018-06-19T17:51:55.187Z,28.60
2018-06-19T17:54:24.129Z,28.33
2018-06-19T17:56:53.129Z,28.34
2018-06-19T17:59:22.182Z,28.31
2018-06-19T18:01:51.114Z,28.40
2018-06-19T18:04:20.384Z,28.24
2018-06-19T18:06:49.317Z,27.67
2018-06-19T18:09:18.424Z,27.09
2018-06-19T18:11:47.358Z,27.49
2018-06-19T18:14:16.319Z,27.45
2018-06-19T18:16:45.267Z,27.24
2018-06-19T18:19:14.275Z,27.21
2018-06-19T18:21:43.221Z,26.99
2018-06-19T18:24:12.204Z,27.12
2018-06-19T18:26:41.178Z,26.96
2018-06-19T18:29:10.364Z,26.93
2018-06-19T18:31:39.282Z,26.64
2018-06-19T18:34:08.265Z,26.80
2018-06-19T18:36:37.247Z,26.73
2018-06-19T18:39:09.013Z,26.73
2018-06-19T18:41:37.989Z,26.78
2018-06-19T18:44:07.015Z,26.65
2018-06-19T18:46:35.993Z,26.46
2018-06-19T18:49:05.187Z,26.34
2018-06-19T18:51:34.151Z,26.46
2018-06-19T18:54:03.154Z,26.57
2018-06-19T18:56:32.107Z,26.69
2018-06-19T18:59:01.083Z,26.61
2018-06-19T19:01:30.016Z,26.64
2018-06-19T19:03:58.984Z,26.51
2018-06-19T19:06:27.956Z,26.57
2018-06-19T19:08:56.924Z,26.57
2018-06-19T19:11:25.863Z,26.56
2018-06-19T19:13:54.858Z,26.57
2018-06-19T19:16:29.006Z,26.44
2018-06-19T19:19:02.004Z,26.50
2018-06-19T19:21:31.009Z,26.42
2018-06-19T19:23:59.945Z,26.16
2018-06-19T19:26:34.114Z,26.16
2018-06-19T19:29:08.304Z,26.14
2018-06-19T19:31:37.321Z,25.91
2018-06-19T19:34:06.615Z,25.96
2018-06-19T19:36:40.615Z,26.04
2018-06-19T19:39:14.949Z,26.02
2018-06-19T19:41:45.281Z,25.80
2018-06-19T19:44:14.358Z,25.65
2018-06-19T19:46:48.394Z,25.61
2018-06-19T19:49:17.363Z,25.76
2018-06-19T19:51:46.357Z,25.51
2018-06-19T19:54:15.324Z,25.44
2018-06-19T19:56:49.570Z,25.44
2018-06-19T19:59:18.591Z,25.42
2018-06-19T20:01:47.786Z,25.55
2018-06-19T20:04:16.738Z,25.45
2018-06-19T20:06:45.745Z,25.51
2018-06-19T20:09:14.687Z,25.47
2018-06-19T20:11:43.707Z,25.09
2018-06-19T20:14:12.687Z,25.32
2018-06-19T20:16:41.698Z,25.27
2018-06-19T20:19:10.654Z,25.10
2018-06-19T20:21:39.673Z,25.30
2018-06-19T20:24:08.607Z,23.33
2018-06-19T20:26:37.589Z,23.10
2018-06-19T20:29:06.609Z,23.26
2018-06-19T20:31:35.743Z,23.26
2018-06-19T20:34:04.883Z,23.25
2018-06-19T20:36:33.879Z,23.36
2018-06-19T20:39:02.920Z,23.60
2018-06-19T20:41:31.939Z,23.64
2018-06-19T20:44:00.902Z,23.86
2018-06-19T20:46:29.900Z,23.93
2018-06-19T20:48:58.860Z,23.86
2018-06-19T20:51:27.834Z,23.98
2018-06-19T20:53:56.838Z,23.94
2018-06-19T20:56:25.837Z,23.84
2018-06-19T20:58:54.830Z,23.85
2018-06-19T21:01:23.791Z,23.81
2018-06-19T21:03:52.776Z,23.84
2018-06-19T21:06:21.724Z,23.73
2018-06-19T21:08:50.731Z,23.59
2018-06-19T21:11:19.691Z,23.62
2018-06-19T21:13:48.652Z,23.61
2018-06-19T21:16:17.607Z,23.61
2018-06-19T21:18:46.627Z,23.73
2018-06-19T21:21:15.578Z,23.64
2018-06-19T21:23:44.572Z,23.72
2018-06-19T21:26:13.522Z,23.80
2018-06-19T21:28:42.515Z,23.61
2018-06-19T21:31:11.487Z,23.31
2018-06-19T21:33:40.502Z,23.57
2018-06-19T21:36:09.495Z,23.63
2018-06-19T21:38:38.489Z,23.61
2018-06-19T21:41:07.446Z,23.50
2018-06-19T21:43:36.427Z,23.43
2018-06-19T21:46:05.743Z,23.21
2018-06-19T21:48:35.306Z,23.48
2018-06-19T21:51:04.278Z,23.53
2018-06-19T21:53:33.262Z,23.69
2018-06-19T21:56:02.225Z,23.74
2018-06-19T21:58:31.269Z,23.69
2018-06-19T22:01:00.215Z,23.65
2018-06-19T22:03:29.211Z,23.74
2018-06-19T22:05:58.193Z,23.81
2018-06-19T22:08:31.258Z,23.79
2018-06-19T22:11:00.241Z,23.60
2018-06-19T22:13:29.356Z,23.63
2018-06-19T22:15:58.303Z,22.62
2018-06-19T22:18:27.310Z,23.02
2018-06-19T22:20:56.258Z,23.49
2018-06-19T22:23:25.287Z,23.74
2018-06-19T22:25:54.240Z,23.68
2018-06-19T22:28:23.282Z,23.87
2018-06-19T22:30:52.214Z,24.00
2018-06-19T22:33:21.263Z,24.13
2018-06-19T22:35:50.312Z,24.18
2018-06-19T22:38:19.222Z,24.09
2018-06-19T22:40:48.537Z,24.03
2018-06-19T22:43:17.467Z,24.06
2018-06-19T22:45:46.474Z,24.04
2018-06-19T22:48:15.412Z,24.26
2018-06-19T22:50:44.402Z,24.26
2018-06-19T22:53:13.434Z,24.23
2018-06-19T22:55:42.409Z,24.27
2018-06-19T22:58:11.350Z,24.12
2018-06-19T23:00:40.351Z,24.23
2018-06-19T23:03:09.270Z,24.19
2018-06-19T23:05:38.269Z,24.28
2018-06-19T23:08:07.309Z,24.22
2018-06-19T23:10:36.300Z,24.07
2018-06-19T23:13:05.215Z,23.63
2018-06-19T23:15:34.192Z,23.42
2018-06-19T23:18:03.146Z,23.40
2018-06-19T23:20:32.120Z,23.43
2018-06-19T23:23:01.306Z,23.89
2018-06-19T23:25:30.243Z,24.04
2018-06-19T23:27:59.188Z,24.07
2018-06-19T23:30:28.141Z,23.96
2018-06-19T23:32:57.078Z,23.81
2018-06-19T23:35:26.054Z,23.94
2018-06-19T23:37:54.985Z,23.96
2018-06-19T23:40:23.965Z,23.93
2018-06-19T23:42:52.902Z,23.87
2018-06-19T23:45:21.882Z,23.78
2018-06-19T23:47:50.795Z,23.66
2018-06-19T23:50:19.758Z,23.61
2018-06-19T23:52:48.676Z,23.89
2018-06-19T23:55:17.639Z,23.92
2018-06-19T23:57:46.682Z,24.03
